createdAt,value
2022-08-12T00:03:02.804Z,8.79
2022-08-12T00:06:23.118Z,8.71
2022-08-12T00:09:41.500Z,8.28
2022-08-12T00:13:02.327Z,7.41
2022-08-12T00:16:21.577Z,7.16
2022-08-12T00:19:40.260Z,8.06
2022-08-12T00:23:00.176Z,8.95
2022-08-12T00:26:22.582Z,9.94
2022-08-12T00:29:48.097Z,10.52
2022-08-12T00:33:11.008Z,10.47
2022-08-12T00:36:35.395Z,10.57
2022-08-12T00:39:56.131Z,10.04
2022-08-12T00:43:02.348Z,8.78
2022-08-12T00:46:22.967Z,9.60
2022-08-12T00:49:32.435Z,9.56
2022-08-12T00:52:39.072Z,9.67
2022-08-12T00:55:48.878Z,9.61
2022-08-12T00:58:59.466Z,9.83
2022-08-12T01:02:11.980Z,10.80
2022-08-12T01:05:34.015Z,11.30
2022-08-12T01:09:13.050Z,11.64
2022-08-12T01:12:22.706Z,11.10
2022-08-12T01:15:31.404Z,11.76
2022-08-12T01:18:45.008Z,13.29
2022-08-12T01:22:25.825Z,14.06
2022-08-12T01:25:55.916Z,16.74
2022-08-12T01:29:16.941Z,17.11
2022-08-12T01:32:34.604Z,16.45
2022-08-12T01:36:07.747Z,15.84
2022-08-12T01:39:18.850Z,15.28
2022-08-12T01:42:29.844Z,14.83
2022-08-12T01:45:43.037Z,16.22
2022-08-12T01:49:21.751Z,20.39
2022-08-12T01:52:44.969Z,21.74
2022-08-12T01:55:53.162Z,22.26
2022-08-12T01:59:20.307Z,25.95
2022-08-12T02:02:39.820Z,18.97
2022-08-12T02:06:28.205Z,15.89
2022-08-12T02:10:51.314Z,17.79
2022-08-12T02:14:21.403Z,17.55
2022-08-12T02:18:06.480Z,16.07
2022-08-12T02:21:34.384Z,15.73
2022-08-12T02:24:47.301Z,16.43
2022-08-12T02:27:56.083Z,16.33
2022-08-12T02:31:09.209Z,17.06
2022-08-12T02:34:19.099Z,14.93
2022-08-12T02:37:30.215Z,14.62
2022-08-12T02:40:45.515Z,14.62
2022-08-12T02:43:57.591Z,20.90
2022-08-12T02:48:00.049Z,27.41
2022-08-12T02:50:48.847Z,38.96
2022-08-12T02:54:05.624Z,36.53
2022-08-12T02:57:13.444Z,25.28
2022-08-12T03:00:23.494Z,23.15
2022-08-12T03:03:36.413Z,21.24
2022-08-12T03:06:56.979Z,19.87
2022-08-12T03:10:15.998Z,20.05
2022-08-12T03:13:33.105Z,17.96
2022-08-12T03:18:36.264Z,19.02
2022-08-12T03:21:56.449Z,17.95
2022-08-12T03:25:27.719Z,16.65
2022-08-12T03:28:50.488Z,17.38
2022-08-12T03:32:09.217Z,20.44
2022-08-12T03:35:41.051Z,21.28
2022-08-12T03:39:13.718Z,21.01
2022-08-12T03:42:40.077Z,21.32
2022-08-12T03:46:02.112Z,19.29
2022-08-12T03:49:22.951Z,16.94
2022-08-12T03:52:43.743Z,15.42
2022-08-12T03:56:01.859Z,14.76
2022-08-12T03:59:23.080Z,14.92
2022-08-12T04:02:30.247Z,13.73
2022-08-12T04:05:55.215Z,14.07
2022-08-12T04:09:16.152Z,13.46
2022-08-12T04:12:35.098Z,13.42
2022-08-12T04:15:44.246Z,13.71
2022-08-12T04:18:50.785Z,13.33
2022-08-12T04:22:01.366Z,12.89
2022-08-12T04:25:14.570Z,13.08
2022-08-12T04:28:28.372Z,12.52
2022-08-12T04:31:35.333Z,13.27
2022-08-12T04:34:40.969Z,12.61
2022-08-12T04:37:59.130Z,12.57
2022-08-12T04:41:11.275Z,12.95
2022-08-12T04:44:16.831Z,13.64
2022-08-12T04:47:24.268Z,13.81
2022-08-12T04:50:36.072Z,14.77
2022-08-12T04:53:43.918Z,13.89
2022-08-12T04:57:04.002Z,13.20
2022-08-12T05:00:17.536Z,12.97
2022-08-12T05:03:23.684Z,12.49
2022-08-12T05:06:29.682Z,12.74
2022-08-12T05:10:01.031Z,12.26
2022-08-12T05:13:29.774Z,11.90
2022-08-12T05:16:36.205Z,11.93
2022-08-12T05:19:44.258Z,12.15
2022-08-12T05:22:57.180Z,12.68
2022-08-12T05:26:07.401Z,12.83
2022-08-12T05:30:05.469Z,12.53
2022-08-12T05:32:42.617Z,12.31
2022-08-12T05:35:50.343Z,12.88
2022-08-12T05:39:01.862Z,14.34
2022-08-12T05:42:19.254Z,15.85
2022-08-12T05:45:44.877Z,17.44
2022-08-12T05:48:52.534Z,16.68
2022-08-12T05:51:58.541Z,17.59
2022-08-12T05:55:04.064Z,17.33
2022-08-12T05:58:10.780Z,16.00
2022-08-12T06:02:11.714Z,15.16
2022-08-12T06:04:45.460Z,14.24
2022-08-12T06:08:02.118Z,13.01
2022-08-12T06:11:09.219Z,12.86
2022-08-12T06:14:15.033Z,11.86
2022-08-12T06:17:25.542Z,11.36
2022-08-12T06:20:34.309Z,10.37
2022-08-12T06:23:42.850Z,10.40
2022-08-12T06:26:48.641Z,10.88
2022-08-12T06:30:10.253Z,10.72
2022-08-12T06:33:22.807Z,9.87
2022-08-12T06:36:33.606Z,9.59
2022-08-12T06:39:39.409Z,10.23
2022-08-12T06:42:59.977Z,10.39
2022-08-12T06:46:06.403Z,10.37
2022-08-12T06:49:14.646Z,9.69
2022-08-12T06:52:25.225Z,10.49
2022-08-12T06:55:30.741Z,10.43
2022-08-12T06:58:40.354Z,9.73
2022-08-12T07:01:51.164Z,9.84
2022-08-12T07:04:59.979Z,10.07
2022-08-12T07:08:11.063Z,10.09
2022-08-12T07:11:17.208Z,9.93
2022-08-12T07:14:22.834Z,10.22
2022-08-12T07:17:36.750Z,9.33
2022-08-12T07:20:52.802Z,9.37
2022-08-12T07:24:01.603Z,9.26
2022-08-12T07:27:07.379Z,8.78
2022-08-12T07:30:14.836Z,8.88
2022-08-12T07:33:23.919Z,9.17
2022-08-12T07:36:34.031Z,9.38
2022-08-12T07:39:50.997Z,9.22
2022-08-12T07:43:05.295Z,9.12
2022-08-12T07:46:15.479Z,8.98
2022-08-12T07:49:24.869Z,8.99
2022-08-12T07:52:33.133Z,8.84
2022-08-12T07:55:39.210Z,8.75
2022-08-12T07:58:47.226Z,8.61
2022-08-12T08:01:59.672Z,8.36
2022-08-12T08:05:06.933Z,8.40
2022-08-12T08:08:27.633Z,8.60
2022-08-12T08:11:45.582Z,8.18
2022-08-12T08:14:52.172Z,8.19
2022-08-12T08:18:02.972Z,8.25
2022-08-12T08:21:11.052Z,8.29
2022-08-12T08:24:19.284Z,8.24
2022-08-12T08:27:25.089Z,7.77
2022-08-12T08:30:32.289Z,8.42
2022-08-12T08:34:04.205Z,8.35
2022-08-12T08:37:07.753Z,9.14
2022-08-12T08:40:31.595Z,8.84
2022-08-12T08:43:43.914Z,8.68
2022-08-12T08:46:51.593Z,8.48
2022-08-12T08:50:01.417Z,8.49
2022-08-12T08:53:08.994Z,8.53
2022-08-12T08:56:17.292Z,8.61
2022-08-12T08:59:23.467Z,7.96
2022-08-12T09:02:29.431Z,8.12
2022-08-12T09:06:02.019Z,7.56
2022-08-12T09:09:02.708Z,7.65
2022-08-12T09:12:36.099Z,7.98
2022-08-12T09:15:42.001Z,7.52
2022-08-12T09:18:47.827Z,7.38
2022-08-12T09:25:26.604Z,6.82
2022-08-12T09:28:42.156Z,6.95
2022-08-12T09:32:06.938Z,7.42
2022-08-12T09:35:18.612Z,7.03
2022-08-12T09:38:32.031Z,6.92
2022-08-12T09:42:32.851Z,6.97
2022-08-12T09:46:05.261Z,7.12
2022-08-12T09:48:55.765Z,6.91
2022-08-12T09:52:02.665Z,6.87
2022-08-12T09:56:06.347Z,7.30
2022-08-12T09:58:56.488Z,7.13
2022-08-12T10:02:45.812Z,7.30
2022-08-12T10:06:19.687Z,6.58
2022-08-12T10:09:08.422Z,6.75
2022-08-12T10:12:31.172Z,6.42
2022-08-12T10:16:01.871Z,6.38
2022-08-12T10:19:16.988Z,6.01
2022-08-12T10:22:39.072Z,6.32
2022-08-12T10:26:36.794Z,5.90
2022-08-12T10:30:40.899Z,5.61
2022-08-12T10:33:02.937Z,5.66
2022-08-12T10:36:36.199Z,5.81
2022-08-12T10:40:02.009Z,5.56
2022-08-12T10:43:25.414Z,5.39
2022-08-12T10:46:33.385Z,5.85
2022-08-12T10:50:02.916Z,5.94
2022-08-12T10:53:10.869Z,5.72
2022-08-12T10:56:25.915Z,5.64
2022-08-12T11:00:35.023Z,5.93
2022-08-12T11:04:25.349Z,5.65
2022-08-12T11:07:09.386Z,5.63
2022-08-12T11:10:04.113Z,5.79
2022-08-12T11:13:09.835Z,5.66
2022-08-12T11:16:21.770Z,5.85
2022-08-12T11:19:33.078Z,5.85
2022-08-12T11:22:39.095Z,6.00
2022-08-12T11:25:57.385Z,5.22
2022-08-12T11:29:06.000Z,5.55
2022-08-12T11:32:28.837Z,5.50
2022-08-12T11:35:34.563Z,5.57
2022-08-12T11:38:43.279Z,5.74
2022-08-12T11:41:59.598Z,5.65
2022-08-12T11:45:05.445Z,5.91
2022-08-12T11:48:16.939Z,5.87
2022-08-12T11:51:25.030Z,5.75
2022-08-12T11:54:31.175Z,5.99
2022-08-12T11:58:48.890Z,5.89
2022-08-12T12:02:02.186Z,6.15
2022-08-12T12:04:44.002Z,5.79
2022-08-12T12:08:38.111Z,5.45
2022-08-12T12:11:16.205Z,5.52
2022-08-12T12:14:37.841Z,5.89
2022-08-12T12:17:46.896Z,6.27
2022-08-12T12:20:53.727Z,6.23
2022-08-12T12:24:00.812Z,6.01
2022-08-12T12:27:09.141Z,5.72
2022-08-12T12:30:29.652Z,5.31
2022-08-12T12:33:46.182Z,5.30
2022-08-12T12:37:02.031Z,5.76
2022-08-12T12:40:09.363Z,5.85
2022-08-12T12:43:16.615Z,6.28
2022-08-12T12:46:37.404Z,6.10
2022-08-12T12:49:42.913Z,6.35
2022-08-12T12:52:48.752Z,6.19
2022-08-12T12:55:54.287Z,5.53
2022-08-12T12:58:59.866Z,5.82
2022-08-12T13:02:08.839Z,5.82
2022-08-12T13:05:16.245Z,5.95
2022-08-12T13:08:28.612Z,5.81
2022-08-12T13:11:44.718Z,6.20
2022-08-12T13:14:50.918Z,6.55
2022-08-12T13:18:08.632Z,6.38
2022-08-12T13:21:32.755Z,6.15
2022-08-12T13:24:40.857Z,5.87
2022-08-12T13:27:50.860Z,6.05
2022-08-12T13:30:57.750Z,6.42
2022-08-12T13:34:32.024Z,6.12
2022-08-12T13:37:43.937Z,6.11
2022-08-12T13:41:11.709Z,5.73
2022-08-12T13:44:17.458Z,5.48
2022-08-12T13:47:31.429Z,5.33
2022-08-12T13:50:48.875Z,5.29
2022-08-12T13:54:05.038Z,4.92
2022-08-12T13:57:17.142Z,4.95
2022-08-12T14:00:34.418Z,4.78
2022-08-12T14:03:49.965Z,5.12
2022-08-12T14:07:09.449Z,4.93
2022-08-12T14:10:35.435Z,5.09
2022-08-12T14:14:03.681Z,5.00
2022-08-12T14:17:19.907Z,4.78
2022-08-12T14:20:28.577Z,5.20
2022-08-12T14:24:04.083Z,4.63
2022-08-12T14:27:12.871Z,4.58
2022-08-12T14:30:29.075Z,4.80
2022-08-12T14:33:43.907Z,4.86
2022-08-12T14:36:50.210Z,4.61
2022-08-12T14:39:58.415Z,4.63
2022-08-12T14:43:06.260Z,4.80
2022-08-12T14:46:15.800Z,4.93
2022-08-12T14:50:00.693Z,4.72
2022-08-12T14:59:58.886Z,5.23
2022-08-12T15:03:52.826Z,5.22
2022-08-12T15:06:56.440Z,5.15
2022-08-12T15:10:02.134Z,5.16
2022-08-12T15:13:18.749Z,4.94
2022-08-12T15:16:27.129Z,5.10
2022-08-12T15:20:28.470Z,5.17
2022-08-12T15:23:00.153Z,4.96
2022-08-12T15:26:11.785Z,5.08
2022-08-12T15:29:32.925Z,4.72
2022-08-12T15:32:38.597Z,4.88
2022-08-12T15:35:52.039Z,4.85
2022-08-12T15:39:01.912Z,4.85
2022-08-12T15:42:08.494Z,4.67
2022-08-12T15:45:23.516Z,4.65
2022-08-12T15:48:32.910Z,4.96
2022-08-12T15:51:58.294Z,5.30
2022-08-12T15:55:16.698Z,5.45
2022-08-12T15:58:27.000Z,4.98
2022-08-12T16:01:36.206Z,4.74
2022-08-12T16:04:41.804Z,5.06
2022-08-12T16:07:53.272Z,4.51
2022-08-12T16:10:59.925Z,4.90
2022-08-12T16:14:16.217Z,5.31
2022-08-12T16:18:17.860Z,4.81
2022-08-12T16:20:58.719Z,4.92
2022-08-12T16:24:07.702Z,4.96
2022-08-12T16:27:13.881Z,4.77
2022-08-12T16:30:29.430Z,5.08
2022-08-12T16:33:56.283Z,4.88
2022-08-12T16:37:04.753Z,4.85
2022-08-12T16:40:15.097Z,4.34
2022-08-12T16:43:26.460Z,4.39
2022-08-12T16:46:33.839Z,4.23
2022-08-12T16:49:45.109Z,4.16
2022-08-12T16:52:51.193Z,4.62
2022-08-12T16:56:03.042Z,4.42
2022-08-12T16:59:30.838Z,4.42
2022-08-12T17:02:58.339Z,4.24
2022-08-12T17:06:09.813Z,4.36
2022-08-12T17:09:24.105Z,4.61
2022-08-12T17:12:37.606Z,4.82
2022-08-12T17:15:56.809Z,4.64
2022-08-12T17:19:11.461Z,5.05
2022-08-12T17:22:31.095Z,4.95
2022-08-12T17:25:38.364Z,5.13
2022-08-12T17:28:46.975Z,5.05
2022-08-12T17:32:03.030Z,4.88
2022-08-12T17:35:29.914Z,5.58
2022-08-12T17:38:50.745Z,5.58
2022-08-12T17:41:57.697Z,5.52
2022-08-12T17:45:18.484Z,5.66
2022-08-12T17:48:34.439Z,5.60
2022-08-12T17:51:50.599Z,5.72
2022-08-12T17:55:40.779Z,5.70
2022-08-12T17:58:42.604Z,6.19
2022-08-12T18:01:58.528Z,6.76
2022-08-12T18:05:10.746Z,6.73
2022-08-12T18:08:19.373Z,7.01
2022-08-12T18:12:06.645Z,7.96
2022-08-12T18:15:26.774Z,8.09
2022-08-12T18:18:50.348Z,7.46
2022-08-12T18:22:04.960Z,7.38
2022-08-12T18:26:15.388Z,7.29
2022-08-12T18:29:14.709Z,7.65
2022-08-12T18:32:35.088Z,9.05
2022-08-12T18:35:53.719Z,10.66
2022-08-12T18:39:08.334Z,10.05
2022-08-12T18:42:12.835Z,10.00
2022-08-12T18:45:24.957Z,9.93
2022-08-12T18:48:43.195Z,9.83
2022-08-12T18:52:02.698Z,10.53
2022-08-12T18:55:13.685Z,10.70
2022-08-12T18:58:24.091Z,11.20
2022-08-12T19:02:21.841Z,11.06
2022-08-12T19:05:21.556Z,11.32
2022-08-12T19:08:30.472Z,10.95
2022-08-12T19:11:51.536Z,11.14
2022-08-12T19:15:04.304Z,11.87
2022-08-12T19:18:15.092Z,12.30
2022-08-12T19:21:26.426Z,12.91
2022-08-12T19:24:46.415Z,15.19
2022-08-12T19:27:57.893Z,15.38
2022-08-12T19:31:56.537Z,14.06
2022-08-12T19:42:42.658Z,13.84
2022-08-12T19:45:54.559Z,13.30
2022-08-12T19:49:27.731Z,13.15
2022-08-12T19:57:19.159Z,13.09
2022-08-12T20:00:26.633Z,13.04
2022-08-12T20:03:41.226Z,12.99
2022-08-12T20:06:57.336Z,12.72
2022-08-12T20:10:16.761Z,12.87
2022-08-12T20:13:37.173Z,13.21
2022-08-12T20:16:52.935Z,13.38
2022-08-12T20:20:19.262Z,13.04
2022-08-12T20:29:01.547Z,12.95
2022-08-12T20:32:13.044Z,13.14
2022-08-12T20:35:24.568Z,12.83
2022-08-12T20:38:31.020Z,13.75
2022-08-12T20:41:36.974Z,13.55
2022-08-12T20:44:45.112Z,13.42
2022-08-12T20:47:54.996Z,13.94
2022-08-12T20:51:19.111Z,13.99
2022-08-12T20:54:32.370Z,14.12
2022-08-12T20:58:02.429Z,14.47
2022-08-12T21:01:06.548Z,14.17
2022-08-12T21:04:29.547Z,14.11
2022-08-12T21:07:40.888Z,13.78
2022-08-12T21:10:58.892Z,14.13
2022-08-12T21:14:06.411Z,13.93
2022-08-12T21:17:17.099Z,13.87
2022-08-12T21:20:25.923Z,13.33
2022-08-12T21:23:38.486Z,13.74
2022-08-12T21:26:53.451Z,13.55
2022-08-12T21:30:00.620Z,13.92
2022-08-12T21:33:10.724Z,13.74
2022-08-12T21:36:34.250Z,13.86
2022-08-12T21:39:40.127Z,13.80
2022-08-12T21:42:57.508Z,13.74
2022-08-12T21:46:03.837Z,13.49
2022-08-12T21:49:16.504Z,13.60
2022-08-12T21:52:48.777Z,14.32
2022-08-12T21:55:58.039Z,14.53
2022-08-12T21:59:03.647Z,15.14
2022-08-12T22:02:28.282Z,14.57
2022-08-12T22:05:49.298Z,14.95
2022-08-12T22:09:02.404Z,14.98
2022-08-12T22:12:21.313Z,14.81
2022-08-12T22:15:27.009Z,15.08
2022-08-12T22:18:34.265Z,14.96
2022-08-12T22:21:48.323Z,14.68
2022-08-12T22:25:00.773Z,14.80
2022-08-12T22:28:24.756Z,14.68
2022-08-12T22:31:32.062Z,15.46
2022-08-12T22:34:37.921Z,14.60
2022-08-12T22:37:46.251Z,14.88
2022-08-12T22:41:00.487Z,14.63
2022-08-12T22:44:29.297Z,14.58
2022-08-12T22:47:54.883Z,14.97
2022-08-12T22:51:02.013Z,15.57
2022-08-12T22:54:08.179Z,16.04
2022-08-12T22:57:48.937Z,16.37
2022-08-12T23:01:02.206Z,16.81
2022-08-12T23:04:16.203Z,16.55
2022-08-12T23:07:36.392Z,16.65
2022-08-12T23:10:59.208Z,17.36
2022-08-12T23:14:07.695Z,16.03
2022-08-12T23:17:35.244Z,16.22
2022-08-12T23:20:38.962Z,16.61
2022-08-12T23:24:09.167Z,16.96
2022-08-12T23:27:23.140Z,16.32
2022-08-12T23:30:35.110Z,16.16
2022-08-12T23:34:02.723Z,16.31
2022-08-12T23:37:46.664Z,16.20
2022-08-12T23:40:57.687Z,16.24
2022-08-12T23:44:06.873Z,15.60
2022-08-12T23:47:15.147Z,15.56
2022-08-12T23:50:33.454Z,16.18
2022-08-12T23:53:43.161Z,15.87
2022-08-12T23:56:48.788Z,15.85
2022-08-12T23:59:55.650Z,16.28
